Time;durP1;ratioP1;P1;durP2;ratioP2;P2;SDS_P1;SDS_P2;PMS_P1;PMS_P2;Temp;Humidity;BMP_temperature;BMP_pressure;BME280_temperature;BME280_humidity;BME280_pressure;Samples;Min_cycle;Max_cycle;Signal;HPM_P1;HPM_P2
2023/01/22 00:00:08;;;;;;;21.73;11.53;;;0.10;99.90;;;;;;5036235;28;20697;-59
2023/01/22 00:02:35;;;;;;;20.23;11.30;;;0.20;99.90;;;;;;5037430;28;20193;-59
2023/01/22 00:05:03;;;;;;;22.33;10.87;;;0.10;99.90;;;;;;5037731;28;20287;-59
2023/01/22 00:07:30;;;;;;;19.10;11.17;;;0.00;99.90;;;;;;5036663;28;20249;-59
2023/01/22 00:09:58;;;;;;;19.73;11.90;;;0.10;99.90;;;;;;5038406;28;20231;-60
2023/01/22 00:12:26;;;;;;;19.00;10.80;;;0.10;99.90;;;;;;5037499;28;20223;-60
2023/01/22 00:14:52;;;;;;;22.67;12.63;;;0.10;99.90;;;;;;5038051;28;20211;-60
2023/01/22 00:17:19;;;;;;;24.03;12.50;;;0.00;99.90;;;;;;5035426;28;20212;-59
2023/01/22 00:19:46;;;;;;;22.10;12.40;;;0.00;99.90;;;;;;5034244;28;20208;-60
2023/01/22 00:22:13;;;;;;;15.13;9.23;;;0.00;99.90;;;;;;5038271;28;20721;-60
2023/01/22 00:24:40;;;;;;;22.73;11.93;;;0.10;99.90;;;;;;5037290;28;20641;-60
2023/01/22 00:27:06;;;;;;;18.53;11.17;;;0.10;99.90;;;;;;5037910;28;20346;-63
2023/01/22 00:29:33;;;;;;;20.40;10.53;;;0.10;99.90;;;;;;5037593;28;20198;-61
2023/01/22 00:32:01;;;;;;;20.40;11.27;;;0.00;99.90;;;;;;5037873;28;20549;-66
2023/01/22 00:34:28;;;;;;;20.80;11.43;;;0.10;99.90;;;;;;5037204;28;20239;-60
2023/01/22 00:36:55;;;;;;;19.17;11.37;;;0.00;99.90;;;;;;5036439;28;20241;-59
2023/01/22 00:39:22;;;;;;;19.40;11.63;;;0.20;99.90;;;;;;5036678;28;20277;-60
2023/01/22 00:41:48;;;;;;;21.37;11.53;;;0.10;99.90;;;;;;5035748;28;20613;-60
2023/01/22 00:44:15;;;;;;;19.90;11.80;;;0.10;99.90;;;;;;5035831;28;20538;-60
2023/01/22 00:46:42;;;;;;;17.23;11.37;;;0.20;99.90;;;;;;5037761;28;20205;-60
2023/01/22 00:49:10;;;;;;;22.33;11.53;;;0.10;99.90;;;;;;5038035;28;20572;-61
2023/01/22 00:51:38;;;;;;;23.07;12.57;;;0.30;99.90;;;;;;5034351;28;20251;-60
2023/01/22 00:54:05;;;;;;;22.00;12.27;;;0.20;99.90;;;;;;5037281;28;20196;-60
2023/01/22 00:56:32;;;;;;;24.87;12.43;;;0.20;99.90;;;;;;5037754;28;20239;-60
2023/01/22 00:58:59;;;;;;;20.00;11.50;;;0.10;99.90;;;;;;5037413;28;20215;-59
2023/01/22 01:01:26;;;;;;;18.93;11.80;;;0.20;99.90;;;;;;5033084;28;20303;-60
2023/01/22 01:03:52;;;;;;;17.90;11.77;;;0.30;99.90;;;;;;5031501;28;20541;-60
2023/01/22 01:06:20;;;;;;;21.33;11.80;;;0.30;99.90;;;;;;5037724;28;20235;-60
2023/01/22 01:08:48;;;;;;;23.30;11.77;;;0.30;99.90;;;;;;5032686;28;20206;-60
2023/01/22 01:11:20;;;;;;;19.70;10.20;;;0.40;99.90;;;;;;5034127;28;20221;-60
2023/01/22 01:13:49;;;;;;;19.00;10.50;;;0.40;99.90;;;;;;5036650;28;20559;-60
2023/01/22 01:16:19;;;;;;;23.27;12.17;;;0.40;99.90;;;;;;5033899;28;20632;-60
2023/01/22 01:18:47;;;;;;;17.87;10.90;;;0.50;99.90;;;;;;5035046;28;20574;-59
2023/01/22 01:21:14;;;;;;;20.73;11.03;;;0.50;99.90;;;;;;5035614;28;20203;-60
2023/01/22 01:23:41;;;;;;;23.20;10.97;;;0.60;99.90;;;;;;5035029;28;20200;-60
2023/01/22 01:26:12;;;;;;;17.03;11.07;;;0.50;99.90;;;;;;5034473;28;20204;-60
2023/01/22 01:28:40;;;;;;;21.80;11.00;;;0.40;99.90;;;;;;5036663;28;20213;-60
2023/01/22 01:31:10;;;;;;;17.03;11.33;;;0.50;99.90;;;;;;5035678;28;20663;-59
2023/01/22 01:33:37;;;;;;;19.10;11.20;;;0.60;99.90;;;;;;5035107;28;20314;-60
2023/01/22 01:36:06;;;;;;;16.67;9.77;;;0.60;99.90;;;;;;5036135;28;20370;-59
2023/01/22 01:38:33;;;;;;;21.00;11.67;;;0.40;99.90;;;;;;5035452;28;20697;-60
2023/01/22 01:41:00;;;;;;;18.73;11.57;;;0.30;99.90;;;;;;5035679;28;21253;-60
2023/01/22 01:43:27;;;;;;;18.53;10.47;;;0.30;99.90;;;;;;5036769;28;20695;-60
2023/01/22 01:45:56;;;;;;;18.43;10.93;;;0.30;99.90;;;;;;5034141;28;20689;-61
2023/01/22 01:48:29;;;;;;;19.30;11.60;;;0.30;99.90;;;;;;5036578;28;20208;-60
2023/01/22 01:51:17;;;;;;;17.30;10.57;;;0.30;99.90;;;;;;5034479;28;20256;-60
2023/01/22 01:53:46;;;;;;;19.47;11.37;;;0.30;99.90;;;;;;5035804;28;20198;-60
2023/01/22 01:56:27;;;;;;;15.23;10.03;;;0.50;99.90;;;;;;5036585;28;20194;-60
2023/01/22 01:59:01;;;;;;;17.50;10.30;;;0.50;99.90;;;;;;5036049;28;20676;-60
2023/01/22 02:01:29;;;;;;;17.40;11.13;;;0.50;99.90;;;;;;5034952;28;20930;-60
2023/01/22 02:03:56;;;;;;;16.67;10.33;;;0.40;99.90;;;;;;5036956;28;20591;-60
2023/01/22 02:06:23;;;;;;;17.03;10.07;;;0.60;99.90;;;;;;5036842;28;21753;-60
2023/01/22 02:08:52;;;;;;;16.23;10.30;;;0.60;99.90;;;;;;5035461;28;20611;-61
2023/01/22 02:11:21;;;;;;;17.03;9.97;;;0.60;99.90;;;;;;5035811;28;20254;-60
2023/01/22 02:13:54;;;;;;;16.70;9.70;;;0.80;99.90;;;;;;5035765;28;20512;-61
2023/01/22 02:16:22;;;;;;;17.50;10.30;;;0.70;99.90;;;;;;5034174;28;20231;-60
2023/01/22 02:18:49;;;;;;;14.83;9.70;;;0.60;99.90;;;;;;5027465;28;20321;-60
2023/01/22 02:21:45;;;;;;;20.10;10.47;;;0.60;99.90;;;;;;5035155;28;20301;-59
2023/01/22 02:24:14;;;;;;;16.17;10.30;;;0.70;99.90;;;;;;5020358;28;20281;-60
2023/01/22 02:26:43;;;;;;;12.93;9.10;;;0.60;99.90;;;;;;5031078;28;20203;-60
2023/01/22 02:29:12;;;;;;;14.83;9.23;;;0.60;99.90;;;;;;5017872;28;20638;-60
2023/01/22 02:31:40;;;;;;;17.17;9.57;;;0.70;99.90;;;;;;5032948;28;20269;-59
2023/01/22 02:34:08;;;;;;;12.53;8.30;;;0.80;99.90;;;;;;5029273;28;20207;-60
2023/01/22 02:36:37;;;;;;;16.97;9.93;;;0.90;99.90;;;;;;5036372;28;20313;-60
2023/01/22 02:39:04;;;;;;;13.00;8.57;;;0.80;17.70;;;;;;5030645;28;20310;-60
2023/01/22 02:41:32;;;;;;;14.87;9.87;;;0.70;22.90;;;;;;5032808;28;20207;-60
2023/01/22 02:43:58;;;;;;;14.23;9.33;;;0.70;99.90;;;;;;5033669;28;20624;-60
2023/01/22 02:46:25;;;;;;;13.67;9.13;;;0.60;99.90;;;;;;5032929;28;20567;-60
2023/01/22 02:48:52;;;;;;;15.27;9.37;;;0.60;99.90;;;;;;5035901;28;20628;-60
2023/01/22 02:51:19;;;;;;;14.27;8.53;;;0.70;99.90;;;;;;5035287;28;20337;-60
2023/01/22 02:53:46;;;;;;;13.13;9.53;;;0.70;99.90;;;;;;5037623;28;20214;-60
2023/01/22 02:56:13;;;;;;;13.73;9.00;;;0.60;99.90;;;;;;5030479;28;20574;-60
2023/01/22 02:58:39;;;;;;;15.40;8.67;;;0.60;99.90;;;;;;5030537;28;20255;-60
2023/01/22 03:01:19;;;;;;;14.50;8.83;;;0.70;99.90;;;;;;5030683;28;20639;-60
2023/01/22 03:03:52;;;;;;;13.03;8.67;;;0.60;99.90;;;;;;5034423;28;20252;-60
2023/01/22 03:06:20;;;;;;;14.97;9.00;;;0.70;99.90;;;;;;5035278;28;20203;-60
2023/01/22 03:08:53;;;;;;;13.60;8.67;;;0.70;99.90;;;;;;5039421;28;20217;-59
2023/01/22 03:11:20;;;;;;;13.87;8.30;;;0.50;99.90;;;;;;5039359;28;20733;-59
2023/01/22 03:22:04;;;;;;;13.67;8.37;;;0.60;99.90;;;;;;5037901;28;20206;-60
2023/01/22 03:24:31;;;;;;;12.50;8.63;;;0.50;99.90;;;;;;5039079;28;20751;-59
2023/01/22 03:26:58;;;;;;;13.03;7.97;;;0.50;99.90;;;;;;5037855;28;20203;-59
2023/01/22 03:29:25;;;;;;;14.57;9.00;;;0.60;99.90;;;;;;5038637;28;20216;-60
2023/01/22 03:31:51;;;;;;;11.57;7.47;;;0.50;99.90;;;;;;5033945;28;20207;-61
2023/01/22 03:34:20;;;;;;;16.47;8.97;;;0.50;99.90;;;;;;5035203;28;20226;-60
2023/01/22 03:36:47;;;;;;;12.33;8.93;;;0.60;99.90;;;;;;5038122;28;20231;-59
2023/01/22 03:39:14;;;;;;;14.70;8.43;;;0.70;99.90;;;;;;5036321;28;20581;-60
2023/01/22 03:41:41;;;;;;;12.57;8.30;;;0.60;99.90;;;;;;5036389;28;20244;-61
2023/01/22 03:44:10;;;;;;;12.03;8.90;;;0.50;99.90;;;;;;5037329;28;20225;-61
2023/01/22 03:46:39;;;;;;;13.13;8.37;;;0.60;99.90;;;;;;5037414;28;20210;-61
2023/01/22 03:49:06;;;;;;;14.20;8.73;;;0.60;99.90;;;;;;5035086;28;20207;-60
2023/01/22 03:51:34;;;;;;;13.07;8.37;;;0.70;99.90;;;;;;5029873;28;20329;-60
2023/01/22 03:54:00;;;;;;;13.93;8.40;;;0.60;99.90;;;;;;5033772;28;20208;-60
2023/01/22 03:56:28;;;;;;;13.13;8.20;;;0.60;99.90;;;;;;5035189;28;20760;-60
2023/01/22 03:58:55;;;;;;;13.17;8.53;;;0.80;99.90;;;;;;5034644;28;20785;-60
2023/01/22 04:01:25;;;;;;;11.83;7.93;;;0.80;99.90;;;;;;5034256;28;20210;-60
2023/01/22 04:03:53;;;;;;;14.43;8.03;;;0.90;99.90;;;;;;5038317;28;20199;-60
2023/01/22 04:06:21;;;;;;;12.97;7.67;;;0.80;99.90;;;;;;5035546;28;20299;-60
2023/01/22 04:08:49;;;;;;;10.67;8.00;;;0.80;99.90;;;;;;5036879;28;20687;-61
2023/01/22 04:11:17;;;;;;;13.23;8.27;;;0.80;99.90;;;;;;5038119;28;20211;-60
2023/01/22 04:13:44;;;;;;;12.60;8.10;;;0.80;99.90;;;;;;5038460;28;20666;-60
2023/01/22 04:16:12;;;;;;;16.40;9.00;;;0.80;99.90;;;;;;5033020;28;20644;-60
2023/01/22 04:18:40;;;;;;;12.67;7.93;;;0.80;99.90;;;;;;5035507;28;20229;-60
2023/01/22 04:21:07;;;;;;;12.70;8.63;;;0.90;99.90;;;;;;5034531;28;20210;-61
2023/01/22 04:23:34;;;;;;;14.00;7.50;;;0.80;99.90;;;;;;5034105;28;20287;-60
2023/01/22 04:26:01;;;;;;;10.90;7.73;;;0.70;99.90;;;;;;5037211;28;21387;-60
2023/01/22 04:28:28;;;;;;;13.63;8.00;;;0.70;99.90;;;;;;5035823;28;20837;-61
2023/01/22 04:30:55;;;;;;;12.37;6.60;;;0.60;99.90;;;;;;5033629;28;20217;-60
2023/01/22 04:33:22;;;;;;;11.53;7.57;;;0.60;99.90;;;;;;5037189;28;20199;-60
2023/01/22 04:35:51;;;;;;;13.77;7.77;;;0.60;99.90;;;;;;5037376;28;20253;-59
2023/01/22 04:38:18;;;;;;;12.83;7.80;;;0.60;99.90;;;;;;5037854;28;20328;-61
2023/01/22 04:40:45;;;;;;;11.47;8.10;;;0.60;99.90;;;;;;5038844;28;20204;-60
2023/01/22 04:43:12;;;;;;;13.10;7.60;;;0.70;99.90;;;;;;5034347;28;20229;-60
2023/01/22 04:45:39;;;;;;;12.93;7.93;;;0.70;99.90;;;;;;5044928;28;20239;-60
2023/01/22 04:48:07;;;;;;;13.97;8.27;;;0.70;99.90;;;;;;5031332;28;20205;-60
2023/01/22 04:50:34;;;;;;;10.80;7.70;;;0.70;99.90;;;;;;5032181;28;20751;-60
2023/01/22 04:53:01;;;;;;;11.77;7.90;;;0.70;99.90;;;;;;5035365;28;20602;-60
2023/01/22 04:55:28;;;;;;;13.50;8.13;;;0.70;99.90;;;;;;5031504;28;20240;-60
2023/01/22 04:57:59;;;;;;;11.93;7.83;;;0.60;99.90;;;;;;5033552;28;20222;-60
2023/01/22 05:00:28;;;;;;;16.70;8.17;;;0.60;99.90;;;;;;5034107;28;20733;-61
2023/01/22 05:03:00;;;;;;;12.60;7.47;;;0.70;99.90;;;;;;5043538;28;20336;-61
2023/01/22 05:05:27;;;;;;;12.80;8.20;;;0.70;99.90;;;;;;5030845;28;20214;-61
2023/01/22 05:07:54;;;;;;;11.50;7.17;;;0.60;99.90;;;;;;5029495;28;20893;-61
2023/01/22 05:10:22;;;;;;;12.83;7.57;;;0.60;99.90;;;;;;5031878;28;20203;-62
2023/01/22 05:12:49;;;;;;;12.00;7.80;;;0.60;99.90;;;;;;5030656;28;20215;-60
2023/01/22 05:15:16;;;;;;;13.57;7.83;;;0.60;99.90;;;;;;5030195;28;20656;-61
2023/01/22 05:17:51;;;;;;;11.63;7.57;;;0.60;99.90;;;;;;5029969;28;20203;-60
2023/01/22 05:20:19;;;;;;;11.57;8.37;;;0.60;99.90;;;;;;5027215;28;20226;-60
2023/01/22 05:22:46;;;;;;;11.57;6.70;;;0.60;99.90;;;;;;5033900;28;20853;-61
2023/01/22 05:25:13;;;;;;;13.23;7.43;;;0.60;99.90;;;;;;5029772;28;20191;-60
2023/01/22 05:27:40;;;;;;;13.50;7.77;;;0.50;99.90;;;;;;5030702;28;20290;-61
2023/01/22 05:30:08;;;;;;;16.67;8.57;;;0.60;99.90;;;;;;5031902;28;20249;-60
2023/01/22 05:32:35;;;;;;;12.43;7.93;;;0.60;99.90;;;;;;5033146;28;20210;-61
2023/01/22 05:35:03;;;;;;;13.07;8.10;;;0.50;99.90;;;;;;5035815;28;20277;-60
2023/01/22 05:37:31;;;;;;;11.03;6.50;;;0.50;99.90;;;;;;5035228;28;20701;-59
2023/01/22 05:39:58;;;;;;;12.13;7.80;;;0.50;99.90;;;;;;5032100;28;20222;-60
2023/01/22 05:42:24;;;;;;;11.60;7.47;;;0.50;99.90;;;;;;5034674;28;20307;-60
2023/01/22 05:44:51;;;;;;;15.27;7.43;;;0.60;99.90;;;;;;5035089;28;20291;-60
2023/01/22 05:47:18;;;;;;;10.57;7.10;;;0.50;99.90;;;;;;5032691;28;20850;-60
2023/01/22 05:49:45;;;;;;;11.80;7.70;;;0.60;99.90;;;;;;5033633;28;20203;-60
2023/01/22 05:52:12;;;;;;;11.17;6.93;;;0.60;99.90;;;;;;5033928;28;20242;-60
2023/01/22 05:54:38;;;;;;;13.20;6.70;;;0.50;99.90;;;;;;5032711;28;20293;-59
2023/01/22 05:57:06;;;;;;;10.53;7.10;;;0.40;99.90;;;;;;5032783;28;20652;-60
2023/01/22 05:59:33;;;;;;;13.90;7.97;;;0.50;99.90;;;;;;5031723;28;20765;-61
2023/01/22 06:01:59;;;;;;;12.67;7.70;;;0.60;99.90;;;;;;5034771;28;20199;-61
2023/01/22 06:04:27;;;;;;;11.37;6.17;;;0.60;99.90;;;;;;5033209;28;20194;-61
2023/01/22 06:06:54;;;;;;;8.97;6.63;;;0.60;99.90;;;;;;5032847;28;20205;-60
2023/01/22 06:09:21;;;;;;;10.10;6.20;;;0.50;99.90;;;;;;5032863;28;20205;-60
2023/01/22 06:11:47;;;;;;;9.57;6.83;;;0.50;99.90;;;;;;5034111;28;20213;-61
2023/01/22 06:14:14;;;;;;;9.67;6.73;;;0.50;99.90;;;;;;5035168;28;20288;-60
2023/01/22 06:16:41;;;;;;;10.10;6.93;;;0.50;99.90;;;;;;5033366;28;20237;-61
2023/01/22 06:19:08;;;;;;;11.27;6.93;;;0.50;99.90;;;;;;5033684;28;20575;-62
2023/01/22 06:21:35;;;;;;;11.40;7.43;;;0.50;99.90;;;;;;5034044;28;20201;-60
2023/01/22 06:24:02;;;;;;;11.70;6.67;;;0.50;99.90;;;;;;5033744;28;20531;-60
2023/01/22 06:26:29;;;;;;;10.53;6.60;;;0.50;99.90;;;;;;5035724;28;20230;-60
2023/01/22 06:28:56;;;;;;;10.17;6.47;;;0.50;99.90;;;;;;5037055;28;20208;-60
2023/01/22 06:31:23;;;;;;;10.63;6.60;;;0.40;99.90;;;;;;5032676;28;20245;-60
2023/01/22 06:33:51;;;;;;;11.17;7.33;;;0.40;68.20;;;;;;5031886;28;20210;-60
2023/01/22 06:36:18;;;;;;;13.33;6.97;;;0.40;99.90;;;;;;5037534;28;20693;-60
2023/01/22 06:38:45;;;;;;;12.73;6.03;;;0.40;99.90;;;;;;5036095;28;20277;-59
2023/01/22 06:41:12;;;;;;;10.23;6.70;;;0.30;99.90;;;;;;5035636;28;20215;-59
2023/01/22 06:43:38;;;;;;;9.90;6.67;;;0.40;99.90;;;;;;5037409;28;20652;-60
2023/01/22 06:46:05;;;;;;;11.47;7.17;;;0.50;99.90;;;;;;5042115;28;20232;-61
2023/01/22 06:48:32;;;;;;;10.03;6.33;;;0.50;99.90;;;;;;5038164;28;20198;-60
2023/01/22 06:50:59;;;;;;;10.53;6.30;;;0.50;99.90;;;;;;5041165;28;20338;-60
2023/01/22 06:53:27;;;;;;;8.63;6.00;;;0.60;99.90;;;;;;5040385;28;20242;-60
2023/01/22 06:55:54;;;;;;;10.77;6.80;;;0.60;99.90;;;;;;5040551;28;20208;-60
2023/01/22 06:58:21;;;;;;;10.50;6.30;;;0.60;99.90;;;;;;5040166;28;20200;-61
2023/01/22 07:00:47;;;;;;;10.03;5.97;;;0.60;99.90;;;;;;5032829;28;20342;-60
2023/01/22 07:03:14;;;;;;;10.77;7.63;;;0.60;99.90;;;;;;5037231;28;20284;-61
2023/01/22 07:05:41;;;;;;;11.83;6.83;;;0.60;99.90;;;;;;5038885;28;20201;-60
2023/01/22 07:08:13;;;;;;;10.63;6.63;;;0.70;99.90;;;;;;5038039;28;20204;-60
2023/01/22 07:10:40;;;;;;;13.70;6.87;;;0.60;99.90;;;;;;5041587;28;20285;-60
2023/01/22 07:13:09;;;;;;;10.13;7.20;;;0.60;99.90;;;;;;5040548;28;20301;-60
2023/01/22 07:15:35;;;;;;;8.50;6.07;;;0.60;99.90;;;;;;5037219;28;20215;-63
2023/01/22 07:18:03;;;;;;;10.30;6.67;;;0.60;99.90;;;;;;5036514;28;20196;-60
2023/01/22 07:20:30;;;;;;;11.20;6.23;;;0.60;99.90;;;;;;5040217;28;20221;-60
2023/01/22 07:22:58;;;;;;;10.67;6.73;;;0.60;99.90;;;;;;5040798;28;20194;-60
2023/01/22 07:25:26;;;;;;;8.80;6.17;;;0.70;99.90;;;;;;5040219;28;20209;-60
2023/01/22 07:28:01;;;;;;;9.57;5.83;;;0.60;99.90;;;;;;5038907;28;20213;-60
2023/01/22 07:30:28;;;;;;;11.20;6.33;;;0.70;99.90;;;;;;5040002;28;20233;-60
2023/01/22 07:33:00;;;;;;;11.47;6.77;;;0.70;99.90;;;;;;5031331;28;20209;-60
2023/01/22 07:35:27;;;;;;;10.30;6.00;;;0.80;99.90;;;;;;5036061;28;20590;-60
2023/01/22 07:37:56;;;;;;;9.87;6.00;;;0.70;99.90;;;;;;5036951;28;20243;-60
2023/01/22 07:40:24;;;;;;;10.80;6.50;;;0.70;99.90;;;;;;5023765;28;20214;-60
2023/01/22 07:42:52;;;;;;;9.50;5.10;;;0.70;99.90;;;;;;5036747;28;20436;-60
2023/01/22 07:45:20;;;;;;;8.33;4.57;;;0.70;99.90;;;;;;5040367;28;20206;-60
2023/01/22 07:48:06;;;;;;;8.53;5.70;;;0.70;99.90;;;;;;5036179;28;20203;-65
2023/01/22 07:50:35;;;;;;;10.17;6.57;;;0.80;99.90;;;;;;5029350;28;20247;-65
2023/01/22 07:53:02;;;;;;;8.80;5.60;;;0.70;99.90;;;;;;5037637;28;20239;-60
2023/01/22 07:55:30;;;;;;;9.97;5.57;;;0.80;99.90;;;;;;5039489;28;20214;-60
2023/01/22 07:58:03;;;;;;;9.43;5.30;;;0.80;99.90;;;;;;5022522;28;20712;-60
2023/01/22 08:00:32;;;;;;;8.50;5.40;;;0.80;99.90;;;;;;5032400;28;20252;-61
2023/01/22 08:03:00;;;;;;;7.67;5.33;;;0.80;99.90;;;;;;5031798;28;20665;-61
2023/01/22 08:05:27;;;;;;;7.37;5.50;;;0.80;99.90;;;;;;5034619;28;20228;-60
2023/01/22 08:07:53;;;;;;;7.33;5.67;;;0.80;99.90;;;;;;5033278;28;20200;-60
2023/01/22 08:10:20;;;;;;;7.70;5.10;;;0.80;99.90;;;;;;5037447;28;20295;-60
2023/01/22 08:12:47;;;;;;;7.43;5.13;;;0.90;99.90;;;;;;5037490;28;20208;-61
2023/01/22 08:15:14;;;;;;;11.53;6.23;;;1.00;99.90;;;;;;5038742;28;20329;-61
2023/01/22 08:17:41;;;;;;;7.17;5.07;;;1.00;99.90;;;;;;5034543;28;20281;-66
2023/01/22 08:20:09;;;;;;;9.93;5.87;;;1.00;99.90;;;;;;5038075;28;20224;-62
2023/01/22 08:22:36;;;;;;;8.83;5.37;;;1.00;99.90;;;;;;5040119;28;20221;-60
2023/01/22 08:25:03;;;;;;;8.77;5.30;;;0.90;99.90;;;;;;5038900;28;20204;-60
2023/01/22 08:27:33;;;;;;;9.40;5.57;;;0.90;99.90;;;;;;5037675;28;20218;-59
2023/01/22 08:30:02;;;;;;;10.07;5.53;;;0.90;99.90;;;;;;5034421;28;20201;-60
2023/01/22 08:32:29;;;;;;;9.07;5.67;;;1.00;99.90;;;;;;5032904;28;20210;-60
2023/01/22 08:34:56;;;;;;;8.90;5.87;;;1.10;99.90;;;;;;5031524;28;20647;-60
2023/01/22 08:37:24;;;;;;;8.83;5.40;;;1.00;99.90;;;;;;5029922;28;20300;-60
2023/01/22 08:39:51;;;;;;;8.27;5.77;;;1.00;99.90;;;;;;5025303;28;20303;-60
2023/01/22 08:42:18;;;;;;;9.80;6.20;;;1.00;99.90;;;;;;5030889;28;20250;-60
2023/01/22 08:44:44;;;;;;;12.37;6.07;;;1.00;99.90;;;;;;5032963;28;20200;-60
2023/01/22 08:47:11;;;;;;;9.57;6.50;;;1.10;99.90;;;;;;5029129;28;20203;-60
2023/01/22 08:49:38;;;;;;;10.27;6.60;;;1.20;99.90;;;;;;4668560;28;10000019;-61
2023/01/22 08:52:05;;;;;;;8.03;5.70;;;1.10;99.90;;;;;;5017384;28;20252;-61
2023/01/22 08:54:32;;;;;;;9.27;6.50;;;1.00;99.90;;;;;;5020165;28;20205;-60
2023/01/22 08:56:59;;;;;;;9.03;5.97;;;1.10;99.90;;;;;;5016762;28;20197;-64
2023/01/22 08:59:25;;;;;;;8.57;6.03;;;1.20;99.90;;;;;;4999717;28;20220;-60
2023/01/22 09:01:59;;;;;;;9.83;6.00;;;1.30;99.90;;;;;;5006974;28;20650;-60
2023/01/22 09:04:27;;;;;;;11.10;5.97;;;1.20;99.90;;;;;;5025006;28;20212;-61
2023/01/22 09:06:54;;;;;;;7.97;5.70;;;1.30;99.90;;;;;;5018058;28;20201;-61
2023/01/22 09:09:21;;;;;;;11.77;6.90;;;1.40;99.90;;;;;;5036364;28;20200;-61
2023/01/22 09:11:48;;;;;;;9.37;5.33;;;1.50;99.90;;;;;;5026520;28;20283;-61
2023/01/22 09:14:15;;;;;;;10.77;6.43;;;1.40;99.90;;;;;;5028269;28;20521;-61
2023/01/22 09:16:42;;;;;;;10.00;6.57;;;1.40;99.90;;;;;;5026664;28;20199;-60
2023/01/22 09:19:09;;;;;;;9.83;6.60;;;1.40;99.90;;;;;;5035160;28;20294;-60
2023/01/22 09:21:36;;;;;;;13.20;6.17;;;1.40;99.90;;;;;;5028090;28;20320;-60
2023/01/22 09:24:04;;;;;;;9.63;5.87;;;1.50;99.90;;;;;;5028454;28;20297;-61
2023/01/22 09:26:32;;;;;;;8.17;5.77;;;1.30;99.90;;;;;;5034055;28;20266;-60
2023/01/22 09:29:00;;;;;;;9.87;6.47;;;1.30;99.90;;;;;;5030610;28;20227;-61
2023/01/22 09:31:27;;;;;;;9.77;6.07;;;1.20;99.90;;;;;;5034481;28;20286;-60
2023/01/22 09:33:54;;;;;;;8.80;5.87;;;1.30;99.90;;;;;;5022600;28;20298;-60
2023/01/22 09:36:21;;;;;;;10.03;5.77;;;1.40;99.90;;;;;;5033502;28;20228;-60
2023/01/22 09:38:48;;;;;;;9.60;6.13;;;1.40;99.90;;;;;;5036766;28;20227;-60
2023/01/22 09:41:36;;;;;;;10.03;6.27;;;1.50;99.90;;;;;;5030148;28;21014;-60
2023/01/22 09:44:18;;;;;;;7.70;5.43;;;1.40;99.90;;;;;;5034088;28;20287;-61
2023/01/22 09:46:55;;;;;;;9.93;6.63;;;1.40;99.90;;;;;;5030701;28;20274;-61
2023/01/22 09:49:36;;;;;;;7.67;5.40;;;1.50;99.90;;;;;;5034739;28;20231;-60
2023/01/22 09:52:05;;;;;;;10.03;5.87;;;1.50;99.90;;;;;;5036007;28;20299;-60
2023/01/22 09:54:32;;;;;;;8.00;5.70;;;1.50;99.90;;;;;;5034104;28;20390;-62
2023/01/22 09:57:03;;;;;;;9.10;6.00;;;1.50;99.90;;;;;;5037951;28;20297;-60
2023/01/22 09:59:38;;;;;;;7.40;5.10;;;1.50;99.90;;;;;;5034013;28;20296;-60
2023/01/22 10:02:42;;;;;;;8.77;5.70;;;1.60;99.90;;;;;;5035876;28;20200;-60
2023/01/22 10:05:28;;;;;;;9.67;5.57;;;1.70;99.90;;;;;;5023894;28;20211;-60
2023/01/22 10:08:15;;;;;;;8.97;6.20;;;1.50;99.90;;;;;;5031840;28;20204;-61
2023/01/22 10:10:43;;;;;;;10.10;6.03;;;1.60;99.90;;;;;;5035524;28;20218;-60
2023/01/22 10:13:24;;;;;;;9.50;6.27;;;1.60;99.90;;;;;;5033566;28;20696;-60
2023/01/22 10:15:52;;;;;;;10.50;6.37;;;1.60;99.90;;;;;;5035645;28;20248;-60
2023/01/22 10:18:24;;;;;;;9.90;6.53;;;1.60;99.90;;;;;;5051948;28;20200;-60
2023/01/22 10:20:53;;;;;;;7.13;5.80;;;1.60;99.90;;;;;;5032365;28;20252;-60
2023/01/22 10:23:22;;;;;;;8.80;6.03;;;1.60;99.90;;;;;;5050060;28;20203;-61
2023/01/22 10:25:54;;;;;;;9.13;5.13;;;1.60;99.90;;;;;;5030784;28;20287;-60
2023/01/22 10:28:26;;;;;;;7.60;5.10;;;1.60;99.90;;;;;;5037207;28;20566;-60
2023/01/22 10:30:57;;;;;;;7.63;5.00;;;1.60;99.90;;;;;;5040270;28;20204;-60
2023/01/22 10:33:26;;;;;;;9.07;5.77;;;1.50;99.90;;;;;;5040550;28;20663;-61
2023/01/22 10:35:58;;;;;;;8.80;5.60;;;1.60;99.90;;;;;;5039533;28;20271;-61
2023/01/22 10:38:30;;;;;;;7.27;5.33;;;1.50;99.90;;;;;;5024961;28;20693;-60
2023/01/22 10:40:58;;;;;;;7.30;5.50;;;1.60;99.90;;;;;;5028944;28;20221;-60
2023/01/22 10:43:37;;;;;;;10.70;5.60;;;1.60;99.90;;;;;;5036634;28;20192;-60
2023/01/22 10:46:15;;;;;;;8.00;5.50;;;1.60;99.90;;;;;;5035761;28;20303;-60
2023/01/22 10:48:42;;;;;;;9.93;5.77;;;1.60;99.90;;;;;;5033346;28;20216;-60
2023/01/22 10:51:15;;;;;;;11.13;5.70;;;1.60;99.90;;;;;;5034490;28;20251;-61
2023/01/22 10:53:56;;;;;;;7.33;5.30;;;1.80;99.90;;;;;;5036534;28;20673;-60
2023/01/22 10:56:35;;;;;;;10.77;6.00;;;1.80;99.90;;;;;;5035208;28;20196;-60
2023/01/22 10:59:15;;;;;;;9.60;5.33;;;1.80;99.90;;;;;;5038856;28;20257;-60
2023/01/22 11:01:42;;;;;;;7.20;5.27;;;1.80;99.90;;;;;;5033067;28;20220;-60
2023/01/22 11:04:13;;;;;;;7.73;5.80;;;1.70;99.90;;;;;;5025530;28;20777;-61
2023/01/22 11:06:46;;;;;;;6.50;4.97;;;1.80;99.90;;;;;;5017257;28;20202;-60
2023/01/22 11:09:24;;;;;;;9.30;5.77;;;1.70;99.90;;;;;;5037712;28;20288;-59
2023/01/22 11:12:03;;;;;;;7.67;5.60;;;1.80;99.90;;;;;;5030390;28;20243;-61
2023/01/22 11:14:35;;;;;;;8.03;5.90;;;1.90;99.90;;;;;;5029406;28;20779;-60
2023/01/22 11:17:19;;;;;;;9.23;5.83;;;1.80;99.90;;;;;;5034173;28;20203;-60
2023/01/22 11:19:58;;;;;;;7.40;5.10;;;1.80;99.90;;;;;;5027891;28;20207;-60
2023/01/22 11:22:34;;;;;;;8.60;5.77;;;1.70;99.90;;;;;;5030559;28;20235;-60
2023/01/22 11:25:01;;;;;;;8.27;6.10;;;1.80;99.90;;;;;;5032252;28;20405;-60
2023/01/22 11:27:50;;;;;;;7.97;5.43;;;1.90;99.90;;;;;;5027925;28;20211;-61
2023/01/22 11:30:55;;;;;;;9.10;5.30;;;1.80;99.90;;;;;;5035650;28;20311;-61
2023/01/22 11:34:09;;;;;;;8.80;5.93;;;1.90;99.90;;;;;;5032975;28;20204;-60
2023/01/22 11:36:55;;;;;;;6.17;4.50;;;1.80;99.90;;;;;;4958422;28;20313;-60
2023/01/22 11:39:40;;;;;;;8.57;5.07;;;1.80;99.90;;;;;;4951809;28;20558;-61
2023/01/22 11:42:10;;;;;;;7.00;5.37;;;1.90;99.90;;;;;;4952503;28;20838;-60
2023/01/22 11:45:06;;;;;;;9.67;5.23;;;2.00;99.90;;;;;;4948432;28;20203;-61
2023/01/22 11:48:00;;;;;;;8.30;5.40;;;2.10;99.90;;;;;;4950171;28;20199;-61
2023/01/22 11:50:46;;;;;;;8.50;4.97;;;2.00;99.90;;;;;;4950139;28;20242;-60
2023/01/22 11:53:16;;;;;;;9.10;5.33;;;2.10;99.90;;;;;;4942078;28;20632;-60
2023/01/22 11:55:54;;;;;;;6.30;5.20;;;2.20;99.90;;;;;;4924831;28;20263;-61
2023/01/22 11:58:50;;;;;;;9.53;5.93;;;2.20;99.90;;;;;;4952319;28;20198;-60
2023/01/22 12:01:24;;;;;;;9.47;5.23;;;2.10;99.90;;;;;;4919835;28;20336;-61
2023/01/22 12:04:13;;;;;;;7.70;4.87;;;2.20;99.90;;;;;;4944668;28;20223;-61
2023/01/22 12:06:52;;;;;;;7.57;5.63;;;2.20;99.90;;;;;;4948007;28;20705;-61
2023/01/22 12:09:31;;;;;;;7.00;5.30;;;2.30;99.90;;;;;;4946604;28;20196;-60
2023/01/22 12:12:04;;;;;;;7.60;5.40;;;2.30;99.90;;;;;;5026796;28;20205;-60
2023/01/22 12:15:04;;;;;;;9.23;5.33;;;2.30;99.90;;;;;;5025872;28;20219;-61
2023/01/22 12:17:42;;;;;;;7.50;5.33;;;2.20;99.90;;;;;;5028672;28;20943;-60
2023/01/22 12:20:43;;;;;;;9.07;5.90;;;2.20;99.90;;;;;;5022734;28;20236;-61
2023/01/22 12:23:16;;;;;;;7.00;5.23;;;2.30;99.90;;;;;;5030438;28;20664;-61
2023/01/22 12:25:46;;;;;;;9.37;5.73;;;2.40;99.90;;;;;;5034796;28;20203;-64
2023/01/22 12:28:36;;;;;;;7.47;5.60;;;2.40;99.90;;;;;;5034757;28;20283;-61
2023/01/22 12:31:06;;;;;;;8.73;5.37;;;2.30;99.90;;;;;;5028438;28;20203;-60
2023/01/22 12:33:41;;;;;;;9.40;6.00;;;2.50;99.90;;;;;;5033899;28;20284;-61
2023/01/22 12:36:12;;;;;;;7.37;5.30;;;2.40;99.90;;;;;;5035642;28;20238;-61
2023/01/22 12:38:41;;;;;;;7.97;5.40;;;2.40;99.90;;;;;;5034814;28;20239;-60
2023/01/22 12:41:30;;;;;;;9.93;6.17;;;2.30;99.90;;;;;;5036134;28;20779;-63
2023/01/22 12:44:04;;;;;;;10.00;5.87;;;2.30;99.90;;;;;;5032325;28;20276;-61
2023/01/22 12:46:43;;;;;;;8.57;5.40;;;2.10;99.90;;;;;;5037687;28;20211;-60
2023/01/22 12:49:15;;;;;;;7.90;5.67;;;2.20;99.90;;;;;;5030479;28;20216;-60
2023/01/22 12:51:48;;;;;;;8.17;5.53;;;2.30;99.90;;;;;;5030636;28;20323;-60
2023/01/22 12:54:26;;;;;;;9.53;5.63;;;2.30;99.90;;;;;;5024420;28;20283;-60
2023/01/22 12:56:56;;;;;;;7.53;5.83;;;2.20;99.90;;;;;;5034980;28;20295;-60
2023/01/22 12:59:35;;;;;;;6.43;4.97;;;2.20;99.90;;;;;;5032583;28;20215;-60
2023/01/22 13:02:17;;;;;;;8.00;5.40;;;2.30;99.90;;;;;;5033047;28;20215;-59
2023/01/22 13:04:44;;;;;;;9.33;5.87;;;2.30;99.90;;;;;;5036299;28;20200;-59
2023/01/22 13:07:36;;;;;;;8.90;5.83;;;2.20;99.90;;;;;;5035737;28;20291;-60
2023/01/22 13:10:22;;;;;;;8.57;5.40;;;2.20;99.90;;;;;;5026105;28;20621;-59
2023/01/22 13:13:13;;;;;;;9.07;5.63;;;2.10;99.90;;;;;;5030745;28;20628;-61